createdAt,value
2019-05-16T00:08:34.962Z,8.60
2019-05-16T00:18:40.365Z,8.70
2019-05-16T00:28:48.299Z,8.60
2019-05-16T00:38:52.831Z,8.60
2019-05-16T00:48:58.928Z,8.60
2019-05-16T00:59:07.907Z,8.60
2019-05-16T01:09:13.594Z,8.80
2019-05-16T01:19:19.096Z,8.80
2019-05-16T01:29:24.510Z,8.80
2019-05-16T01:39:29.954Z,8.80
2019-05-16T01:49:35.433Z,8.70
2019-05-16T01:59:40.954Z,8.80
2019-05-16T02:09:47.696Z,8.70
2019-05-16T02:19:54.313Z,8.90
2019-05-16T02:30:00.037Z,8.90
2019-05-16T02:40:11.621Z,9.00
2019-05-16T02:50:15.717Z,9.00
2019-05-16T03:00:30.917Z,8.90
2019-05-16T03:10:41.276Z,8.90
2019-05-16T03:20:50.996Z,8.80
2019-05-16T03:30:55.772Z,8.80
2019-05-16T03:41:01.282Z,8.80
2019-05-16T03:51:06.791Z,8.90
2019-05-16T04:01:13.207Z,8.90
2019-05-16T04:11:23.086Z,8.90
2019-05-16T04:21:31.889Z,8.90
2019-05-16T04:31:35.032Z,9.10
2019-05-16T04:41:41.564Z,9.10
2019-05-16T04:51:47.949Z,9.10
2019-05-16T05:01:53.430Z,9.10
2019-05-16T05:12:04.143Z,9.10
2019-05-16T05:22:10.354Z,9.30
2019-05-16T05:32:15.275Z,9.00
2019-05-16T05:42:20.684Z,9.30
2019-05-16T05:52:26.114Z,9.50
2019-05-16T06:02:31.514Z,9.70
2019-05-16T06:12:37.101Z,9.60
2019-05-16T06:22:42.636Z,10.00
2019-05-16T06:32:50.023Z,9.90
2019-05-16T06:42:55.196Z,9.90
2019-05-16T06:53:01.033Z,10.40
2019-05-16T07:03:09.349Z,10.50
2019-05-16T07:13:13.595Z,10.60
2019-05-16T07:23:21.004Z,10.90
2019-05-16T07:33:26.058Z,11.20
2019-05-16T07:43:31.472Z,11.30
2019-05-16T07:53:36.920Z,11.50
2019-05-16T08:03:44.126Z,11.50
2019-05-16T08:13:50.766Z,11.50
2019-05-16T08:23:57.624Z,11.50
2019-05-16T08:34:03.107Z,11.50
2019-05-16T08:44:12.181Z,11.80
2019-05-16T08:54:15.702Z,12.10
2019-05-16T09:04:24.606Z,11.80
2019-05-16T09:14:33.964Z,12.10
2019-05-16T09:24:37.763Z,12.00
2019-05-16T09:34:44.154Z,11.60
2019-05-16T09:44:49.582Z,12.40
2019-05-16T09:54:57.509Z,12.40
2019-05-16T10:05:03.200Z,12.50
2019-05-16T10:15:09.348Z,12.50
2019-05-16T10:25:19.012Z,12.50
2019-05-16T10:35:23.181Z,12.70
2019-05-16T10:45:28.671Z,12.90
2019-05-16T10:55:36.737Z,13.20
2019-05-16T11:05:41.154Z,13.60
2019-05-16T11:15:47.674Z,13.80
2019-05-16T11:25:55.315Z,14.10
2019-05-16T11:36:00.162Z,14.10
2019-05-16T11:46:05.750Z,14.40
2019-05-16T11:56:11.330Z,14.80
2019-05-16T12:06:17.221Z,14.80
2019-05-16T12:16:22.745Z,15.00
2019-05-16T12:26:28.481Z,15.10
2019-05-16T12:36:33.920Z,15.30
2019-05-16T12:56:44.356Z,16.00
2019-05-16T13:06:50.643Z,15.50
2019-05-16T13:16:56.079Z,15.50
2019-05-16T13:27:01.508Z,15.60
2019-05-16T13:37:07.960Z,15.40
2019-05-16T13:47:13.354Z,15.00
2019-05-16T13:57:18.841Z,15.10
2019-05-16T14:07:24.359Z,15.30
2019-05-16T14:17:29.794Z,15.30
2019-05-16T14:27:37.837Z,15.20
2019-05-16T14:37:42.305Z,15.10
2019-05-16T14:47:48.440Z,15.10
2019-05-16T14:57:53.874Z,15.40
2019-05-16T15:07:59.321Z,15.50
2019-05-16T15:18:07.768Z,15.30
2019-05-16T15:28:11.953Z,15.30
2019-05-16T15:38:17.405Z,15.60
2019-05-16T15:48:22.885Z,16.10
2019-05-16T15:58:28.325Z,15.60
2019-05-16T16:08:33.754Z,15.40
2019-05-16T16:18:39.157Z,15.20
2019-05-16T16:28:44.625Z,15.30
2019-05-16T16:38:50.110Z,15.50
2019-05-16T16:48:56.880Z,15.30
2019-05-16T16:59:02.634Z,15.10
2019-05-16T17:09:08.480Z,15.10
2019-05-16T17:19:14.002Z,14.90
2019-05-16T17:29:19.474Z,14.70
2019-05-16T17:39:27.351Z,15.20
2019-05-16T17:49:32.235Z,14.40
2019-05-16T17:59:38.097Z,14.30
2019-05-16T18:09:43.773Z,14.10
2019-05-16T18:19:49.275Z,13.90
2019-05-16T18:29:54.955Z,13.70
2019-05-16T18:40:00.595Z,13.70
2019-05-16T18:50:07.757Z,13.30
2019-05-16T19:00:14.114Z,13.00
2019-05-16T19:10:19.915Z,12.80
2019-05-16T19:20:26.374Z,12.60
2019-05-16T19:30:32.151Z,12.50
2019-05-16T19:40:40.598Z,12.40
2019-05-16T20:00:51.684Z,12.50
2019-05-16T20:10:57.322Z,12.50
2019-05-16T20:21:02.918Z,12.40
2019-05-16T20:31:08.382Z,12.50
2019-05-16T20:41:13.834Z,12.60
2019-05-16T20:51:20.297Z,12.50
2019-05-16T21:01:26.583Z,12.40
2019-05-16T21:11:32.294Z,12.30
2019-05-16T21:21:37.753Z,12.40
2019-05-16T21:31:43.194Z,12.40
2019-05-16T21:41:48.662Z,12.40
2019-05-16T21:51:54.121Z,12.30
2019-05-16T22:01:59.573Z,12.30
2019-05-16T22:12:06.741Z,12.30
2019-05-16T22:22:12.317Z,12.30
2019-05-16T22:32:17.749Z,11.80
2019-05-16T22:42:23.283Z,12.10
2019-05-16T22:52:28.922Z,12.00
2019-05-16T23:02:34.305Z,12.10
2019-05-16T23:12:39.754Z,12.20
2019-05-16T23:22:46.972Z,11.80
2019-05-16T23:32:52.434Z,11.90
2019-05-16T23:42:57.922Z,12.00
2019-05-16T23:53:03.466Z,11.80
